sensor_id;sensor_type;location;lat;lon;timestamp;pressure;altitude;pressure_sealevel;temperature;humidity
19128;BME280;9696;53.686;10.094;2022-09-09T00:01:28;100638.03;;;13.30;100.00
19128;BME280;9696;53.686;10.094;2022-09-09T00:04:05;100636.50;;;13.28;100.00
19128;BME280;9696;53.686;10.094;2022-09-09T00:06:45;100635.41;;;13.30;100.00
19128;BME280;9696;53.686;10.094;2022-09-09T00:09:17;100626.34;;;13.33;100.00
19128;BME280;9696;53.686;10.094;2022-09-09T00:11:50;100629.00;;;13.33;100.00
19128;BME280;9696;53.686;10.094;2022-09-09T00:14:25;100635.78;;;13.35;100.00
19128;BME280;9696;53.686;10.094;2022-09-09T00:17:02;100642.38;;;13.39;100.00
19128;BME280;9696;53.686;10.094;2022-09-09T00:19:38;100639.72;;;13.39;100.00
19128;BME280;9696;53.686;10.094;2022-09-09T00:22:16;100624.31;;;13.44;100.00
19128;BME280;9696;53.686;10.094;2022-09-09T00:24:48;100633.03;;;13.45;100.00
19128;BME280;9696;53.686;10.094;2022-09-09T00:27:27;100634.53;;;13.47;100.00
19128;BME280;9696;53.686;10.094;2022-09-09T00:30:12;100646.22;;;13.45;100.00
19128;BME280;9696;53.686;10.094;2022-09-09T00:32:42;100645.06;;;13.47;100.00
19128;BME280;9696;53.686;10.094;2022-09-09T00:35:18;100635.06;;;13.51;100.00
19128;BME280;9696;53.686;10.094;2022-09-09T00:37:53;100631.28;;;13.53;100.00
19128;BME280;9696;53.686;10.094;2022-09-09T00:40:26;100634.75;;;13.54;100.00
19128;BME280;9696;53.686;10.094;2022-09-09T00:43:10;100627.69;;;13.54;100.00
19128;BME280;9696;53.686;10.094;2022-09-09T00:46:05;100621.25;;;13.57;100.00
19128;BME280;9696;53.686;10.094;2022-09-09T00:48:48;100616.81;;;13.57;100.00
19128;BME280;9696;53.686;10.094;2022-09-09T00:51:29;100625.56;;;13.58;100.00
19128;BME280;9696;53.686;10.094;2022-09-09T00:54:21;100615.84;;;13.58;100.00
19128;BME280;9696;53.686;10.094;2022-09-09T00:57:00;100614.56;;;13.62;100.00
19128;BME280;9696;53.686;10.094;2022-09-09T00:59:39;100624.94;;;13.64;100.00
19128;BME280;9696;53.686;10.094;2022-09-09T01:02:25;100626.59;;;13.65;100.00
19128;BME280;9696;53.686;10.094;2022-09-09T01:04:59;100622.81;;;13.67;100.00
19128;BME280;9696;53.686;10.094;2022-09-09T01:07:32;100626.50;;;13.75;100.00
19128;BME280;9696;53.686;10.094;2022-09-09T01:10:07;100630.25;;;13.72;100.00
19128;BME280;9696;53.686;10.094;2022-09-09T01:12:42;100631.78;;;13.75;100.00
19128;BME280;9696;53.686;10.094;2022-09-09T01:15:20;100627.16;;;13.77;100.00
19128;BME280;9696;53.686;10.094;2022-09-09T01:17:58;100618.06;;;13.71;100.00
19128;BME280;9696;53.686;10.094;2022-09-09T01:20:37;100627.47;;;13.74;100.00
19128;BME280;9696;53.686;10.094;2022-09-09T01:23:27;100622.19;;;13.74;100.00
19128;BME280;9696;53.686;10.094;2022-09-09T01:26:28;100618.59;;;13.75;100.00
19128;BME280;9696;53.686;10.094;2022-09-09T01:29:02;100616.94;;;13.74;100.00
19128;BME280;9696;53.686;10.094;2022-09-09T01:31:40;100616.28;;;13.80;100.00
19128;BME280;9696;53.686;10.094;2022-09-09T01:34:12;100619.41;;;13.75;100.00
19128;BME280;9696;53.686;10.094;2022-09-09T01:36:46;100615.13;;;13.74;100.00
19128;BME280;9696;53.686;10.094;2022-09-09T01:39:19;100614.28;;;13.74;100.00
19128;BME280;9696;53.686;10.094;2022-09-09T01:41:58;100617.25;;;13.71;100.00
19128;BME280;9696;53.686;10.094;2022-09-09T01:44:29;100613.09;;;13.68;100.00
19128;BME280;9696;53.686;10.094;2022-09-09T01:46:58;100612.94;;;13.69;100.00
19128;BME280;9696;53.686;10.094;2022-09-09T01:49:27;100627.44;;;13.65;100.00
19128;BME280;9696;53.686;10.094;2022-09-09T01:51:57;100618.00;;;13.63;100.00
19128;BME280;9696;53.686;10.094;2022-09-09T01:54:36;100611.56;;;13.57;100.00
19128;BME280;9696;53.686;10.094;2022-09-09T01:57:18;100616.31;;;13.54;100.00
19128;BME280;9696;53.686;10.094;2022-09-09T02:00:01;100612.84;;;13.53;100.00
19128;BME280;9696;53.686;10.094;2022-09-09T02:02:48;100614.50;;;13.54;100.00
19128;BME280;9696;53.686;10.094;2022-09-09T02:05:34;100608.72;;;13.51;100.00
19128;BME280;9696;53.686;10.094;2022-09-09T02:08:09;100614.66;;;13.53;100.00
19128;BME280;9696;53.686;10.094;2022-09-09T02:10:55;100613.00;;;13.52;100.00
19128;BME280;9696;53.686;10.094;2022-09-09T02:13:37;100611.19;;;13.52;100.00
19128;BME280;9696;53.686;10.094;2022-09-09T02:16:15;100611.81;;;13.46;100.00
19128;BME280;9696;53.686;10.094;2022-09-09T02:18:50;100616.78;;;13.49;100.00
19128;BME280;9696;53.686;10.094;2022-09-09T02:21:28;100614.59;;;13.45;100.00
19128;BME280;9696;53.686;10.094;2022-09-09T02:24:00;100616.91;;;13.48;100.00
19128;BME280;9696;53.686;10.094;2022-09-09T02:26:35;100622.69;;;13.51;100.00
19128;BME280;9696;53.686;10.094;2022-09-09T02:29:12;100624.47;;;13.43;100.00
19128;BME280;9696;53.686;10.094;2022-09-09T02:31:45;100625.91;;;13.37;100.00
19128;BME280;9696;53.686;10.094;2022-09-09T02:34:21;100617.03;;;13.38;100.00
19128;BME280;9696;53.686;10.094;2022-09-09T02:36:53;100619.81;;;13.37;100.00
19128;BME280;9696;53.686;10.094;2022-09-09T02:39:24;100616.00;;;13.31;100.00
19128;BME280;9696;53.686;10.094;2022-09-09T02:41:53;100606.81;;;13.35;100.00
19128;BME280;9696;53.686;10.094;2022-09-09T02:44:30;100602.81;;;13.31;100.00
19128;BME280;9696;53.686;10.094;2022-09-09T02:47:25;100616.00;;;13.31;100.00
19128;BME280;9696;53.686;10.094;2022-09-09T02:50:05;100613.50;;;13.30;100.00
19128;BME280;9696;53.686;10.094;2022-09-09T02:52:45;100609.38;;;13.27;100.00
19128;BME280;9696;53.686;10.094;2022-09-09T02:55:20;100612.97;;;13.26;100.00
19128;BME280;9696;53.686;10.094;2022-09-09T02:57:56;100616.44;;;13.27;100.00
19128;BME280;9696;53.686;10.094;2022-09-09T03:00:30;100619.59;;;13.30;100.00
19128;BME280;9696;53.686;10.094;2022-09-09T03:03:01;100620.03;;;13.26;100.00
19128;BME280;9696;53.686;10.094;2022-09-09T03:05:33;100618.38;;;13.25;100.00
19128;BME280;9696;53.686;10.094;2022-09-09T03:08:02;100617.19;;;13.19;100.00
19128;BME280;9696;53.686;10.094;2022-09-09T03:10:33;100610.66;;;13.23;100.00
19128;BME280;9696;53.686;10.094;2022-09-09T03:13:03;100616.38;;;13.18;100.00
19128;BME280;9696;53.686;10.094;2022-09-09T03:15:38;100617.66;;;13.14;100.00
19128;BME280;9696;53.686;10.094;2022-09-09T03:18:10;100626.91;;;13.18;100.00
19128;BME280;9696;53.686;10.094;2022-09-09T03:20:39;100629.38;;;13.20;100.00
19128;BME280;9696;53.686;10.094;2022-09-09T03:23:10;100630.66;;;13.16;100.00
19128;BME280;9696;53.686;10.094;2022-09-09T03:25:47;100621.13;;;13.15;100.00
19128;BME280;9696;53.686;10.094;2022-09-09T03:28:19;100623.06;;;13.13;100.00
19128;BME280;9696;53.686;10.094;2022-09-09T03:30:51;100616.19;;;13.20;100.00
19128;BME280;9696;53.686;10.094;2022-09-09T03:33:21;100631.78;;;13.13;100.00
19128;BME280;9696;53.686;10.094;2022-09-09T03:35:50;100627.66;;;13.11;100.00
19128;BME280;9696;53.686;10.094;2022-09-09T03:38:21;100619.84;;;13.19;100.00
19128;BME280;9696;53.686;10.094;2022-09-09T03:40:50;100618.63;;;13.13;100.00
19128;BME280;9696;53.686;10.094;2022-09-09T03:43:22;100622.09;;;13.14;100.00
19128;BME280;9696;53.686;10.094;2022-09-09T03:45:54;100624.03;;;13.12;100.00
19128;BME280;9696;53.686;10.094;2022-09-09T03:48:26;100617.38;;;13.08;100.00
19128;BME280;9696;53.686;10.094;2022-09-09T03:50:57;100624.22;;;13.10;100.00
19128;BME280;9696;53.686;10.094;2022-09-09T03:53:30;100617.78;;;13.13;100.00
19128;BME280;9696;53.686;10.094;2022-09-09T03:55:59;100612.94;;;13.08;100.00
19128;BME280;9696;53.686;10.094;2022-09-09T03:58:30;100631.38;;;13.08;100.00
19128;BME280;9696;53.686;10.094;2022-09-09T04:01:11;100619.34;;;13.06;100.00
19128;BME280;9696;53.686;10.094;2022-09-09T04:03:43;100622.97;;;13.05;100.00
19128;BME280;9696;53.686;10.094;2022-09-09T04:06:13;100627.41;;;13.04;100.00
19128;BME280;9696;53.686;10.094;2022-09-09T04:08:45;100623.41;;;13.00;100.00
19128;BME280;9696;53.686;10.094;2022-09-09T04:11:16;100627.69;;;13.01;100.00
19128;BME280;9696;53.686;10.094;2022-09-09T04:13:47;100627.69;;;13.01;100.00
19128;BME280;9696;53.686;10.094;2022-09-09T04:16:19;100632.31;;;12.99;100.00
19128;BME280;9696;53.686;10.094;2022-09-09T04:18:49;100634.94;;;12.99;100.00
19128;BME280;9696;53.686;10.094;2022-09-09T04:21:18;100633.81;;;13.02;100.00
19128;BME280;9696;53.686;10.094;2022-09-09T04:23:47;100639.22;;;13.00;100.00
19128;BME280;9696;53.686;10.094;2022-09-09T04:26:16;100642.84;;;12.99;100.00
19128;BME280;9696;53.686;10.094;2022-09-09T04:28:46;100643.94;;;12.97;100.00
19128;BME280;9696;53.686;10.094;2022-09-09T04:31:21;100644.78;;;12.97;100.00
19128;BME280;9696;53.686;10.094;2022-09-09T04:33:54;100640.66;;;12.95;100.00
19128;BME280;9696;53.686;10.094;2022-09-09T04:36:23;100644.91;;;12.96;100.00
19128;BME280;9696;53.686;10.094;2022-09-09T04:38:58;100656.44;;;12.95;100.00
19128;BME280;9696;53.686;10.094;2022-09-09T04:41:27;100648.09;;;12.99;100.00
19128;BME280;9696;53.686;10.094;2022-09-09T04:43:56;100659.38;;;12.92;100.00
19128;BME280;9696;53.686;10.094;2022-09-09T04:46:26;100646.06;;;12.93;100.00
19128;BME280;9696;53.686;10.094;2022-09-09T04:48:57;100650.81;;;12.90;100.00
19128;BME280;9696;53.686;10.094;2022-09-09T04:51:30;100659.53;;;12.90;100.00
19128;BME280;9696;53.686;10.094;2022-09-09T04:53:59;100658.84;;;12.88;100.00
19128;BME280;9696;53.686;10.094;2022-09-09T04:56:28;100668.09;;;12.92;100.00
19128;BME280;9696;53.686;10.094;2022-09-09T04:58:58;100663.00;;;12.91;100.00
19128;BME280;9696;53.686;10.094;2022-09-09T05:01:51;100661.19;;;12.91;100.00
19128;BME280;9696;53.686;10.094;2022-09-09T05:04:23;100665.63;;;12.91;100.00
19128;BME280;9696;53.686;10.094;2022-09-09T05:06:52;100661.47;;;12.88;100.00
19128;BME280;9696;53.686;10.094;2022-09-09T05:09:21;100671.19;;;12.88;100.00
19128;BME280;9696;53.686;10.094;2022-09-09T05:11:52;100655.41;;;12.88;100.00
19128;BME280;9696;53.686;10.094;2022-09-09T05:14:29;100660.34;;;12.91;100.00
19128;BME280;9696;53.686;10.094;2022-09-09T05:17:02;100657.72;;;12.91;100.00
19128;BME280;9696;53.686;10.094;2022-09-09T05:19:31;100660.34;;;12.91;100.00
19128;BME280;9696;53.686;10.094;2022-09-09T05:22:00;100665.31;;;12.94;100.00
19128;BME280;9696;53.686;10.094;2022-09-09T05:24:37;100670.59;;;12.94;100.00
19128;BME280;9696;53.686;10.094;2022-09-09T05:27:06;100668.25;;;12.91;100.00
19128;BME280;9696;53.686;10.094;2022-09-09T05:29:35;100671.56;;;12.93;100.00
19128;BME280;9696;53.686;10.094;2022-09-09T05:32:07;100667.94;;;12.94;100.00
19128;BME280;9696;53.686;10.094;2022-09-09T05:34:43;100667.81;;;12.95;100.00
19128;BME280;9696;53.686;10.094;2022-09-09T05:37:12;100670.06;;;12.90;100.00
19128;BME280;9696;53.686;10.094;2022-09-09T05:39:42;100664.03;;;12.98;100.00
19128;BME280;9696;53.686;10.094;2022-09-09T05:42:12;100662.81;;;12.92;100.00
19128;BME280;9696;53.686;10.094;2022-09-09T05:44:41;100673.09;;;12.95;100.00
19128;BME280;9696;53.686;10.094;2022-09-09T05:47:14;100670.59;;;12.94;100.00
19128;BME280;9696;53.686;10.094;2022-09-09T05:49:43;100677.66;;;12.93;100.00
19128;BME280;9696;53.686;10.094;2022-09-09T05:52:13;100676.50;;;12.96;100.00
19128;BME280;9696;53.686;10.094;2022-09-09T05:54:42;100682.63;;;12.96;100.00
19128;BME280;9696;53.686;10.094;2022-09-09T05:57:11;100684.28;;;12.97;100.00
19128;BME280;9696;53.686;10.094;2022-09-09T05:59:40;100690.59;;;13.04;100.00
19128;BME280;9696;53.686;10.094;2022-09-09T06:02:09;100691.28;;;13.06;100.00
19128;BME280;9696;53.686;10.094;2022-09-09T06:04:41;100692.50;;;13.12;100.00
19128;BME280;9696;53.686;10.094;2022-09-09T06:07:11;100695.84;;;13.14;100.00
19128;BME280;9696;53.686;10.094;2022-09-09T06:09:42;100700.81;;;13.17;100.00
19128;BME280;9696;53.686;10.094;2022-09-09T06:12:12;100703.50;;;13.25;100.00
19128;BME280;9696;53.686;10.094;2022-09-09T06:14:41;100696.97;;;13.29;100.00
19128;BME280;9696;53.686;10.094;2022-09-09T06:17:14;100694.78;;;13.42;100.00
19128;BME280;9696;53.686;10.094;2022-09-09T06:19:44;100701.56;;;13.45;100.00
19128;BME280;9696;53.686;10.094;2022-09-09T06:22:14;100709.53;;;13.53;100.00
19128;BME280;9696;53.686;10.094;2022-09-09T06:24:43;100710.56;;;13.60;100.00
19128;BME280;9696;53.686;10.094;2022-09-09T06:27:12;100714.72;;;13.62;100.00
19128;BME280;9696;53.686;10.094;2022-09-09T06:29:42;100716.53;;;13.62;100.00
19128;BME280;9696;53.686;10.094;2022-09-09T06:32:11;100719.38;;;13.68;100.00
19128;BME280;9696;53.686;10.094;2022-09-09T06:34:40;100720.78;;;13.63;100.00
19128;BME280;9696;53.686;10.094;2022-09-09T06:37:11;100717.50;;;13.61;100.00
19128;BME280;9696;53.686;10.094;2022-09-09T06:39:46;100722.84;;;13.69;100.00
19128;BME280;9696;53.686;10.094;2022-09-09T06:42:16;100716.28;;;13.73;100.00
19128;BME280;9696;53.686;10.094;2022-09-09T06:45:04;100711.97;;;13.72;100.00
19128;BME280;9696;53.686;10.094;2022-09-09T06:47:42;100716.13;;;13.75;100.00
19128;BME280;9696;53.686;10.094;2022-09-09T06:50:11;100717.94;;;13.74;100.00
19128;BME280;9696;53.686;10.094;2022-09-09T06:52:42;100720.47;;;13.84;100.00
19128;BME280;9696;53.686;10.094;2022-09-09T06:55:11;100714.44;;;13.91;100.00
19128;BME280;9696;53.686;10.094;2022-09-09T06:57:41;100716.59;;;13.96;100.00
19128;BME280;9696;53.686;10.094;2022-09-09T07:00:15;100711.19;;;13.97;100.00
19128;BME280;9696;53.686;10.094;2022-09-09T07:02:44;100710.56;;;14.03;100.00
19128;BME280;9696;53.686;10.094;2022-09-09T07:05:14;100717.81;;;14.01;100.00
19128;BME280;9696;53.686;10.094;2022-09-09T07:07:47;100715.31;;;14.00;100.00
19128;BME280;9696;53.686;10.094;2022-09-09T07:10:19;100726.84;;;13.99;100.00
19128;BME280;9696;53.686;10.094;2022-09-09T07:12:51;100714.66;;;13.98;100.00
19128;BME280;9696;53.686;10.094;2022-09-09T07:15:23;100726.84;;;13.99;100.00
19128;BME280;9696;53.686;10.094;2022-09-09T07:17:52;100718.69;;;14.10;100.00
19128;BME280;9696;53.686;10.094;2022-09-09T07:20:21;100722.31;;;14.09;100.00
19128;BME280;9696;53.686;10.094;2022-09-09T07:22:56;100717.91;;;14.18;100.00
19128;BME280;9696;53.686;10.094;2022-09-09T07:25:26;100725.84;;;14.93;100.00
19128;BME280;9696;53.686;10.094;2022-09-09T07:27:57;100730.09;;;15.77;100.00
19128;BME280;9696;53.686;10.094;2022-09-09T07:30:26;100730.09;;;15.77;100.00
19128;BME280;9696;53.686;10.094;2022-09-09T07:32:56;100734.06;;;16.05;100.00
19128;BME280;9696;53.686;10.094;2022-09-09T07:35:27;100722.59;;;16.21;100.00
19128;BME280;9696;53.686;10.094;2022-09-09T07:37:57;100732.81;;;16.32;99.53
19128;BME280;9696;53.686;10.094;2022-09-09T07:40:26;100725.13;;;16.14;100.00
19128;BME280;9696;53.686;10.094;2022-09-09T07:42:56;100730.44;;;15.90;99.76
19128;BME280;9696;53.686;10.094;2022-09-09T07:45:26;100737.41;;;15.75;100.00
19128;BME280;9696;53.686;10.094;2022-09-09T07:47:56;100742.34;;;16.02;100.00
19128;BME280;9696;53.686;10.094;2022-09-09T07:50:26;100745.16;;;15.52;100.00
19128;BME280;9696;53.686;10.094;2022-09-09T07:52:56;100744.50;;;15.50;100.00
19128;BME280;9696;53.686;10.094;2022-09-09T07:55:27;100741.69;;;15.84;100.00
19128;BME280;9696;53.686;10.094;2022-09-09T07:57:56;100745.00;;;15.70;100.00
19128;BME280;9696;53.686;10.094;2022-09-09T08:00:25;100746.47;;;15.88;100.00
19128;BME280;9696;53.686;10.094;2022-09-09T08:02:57;100742.34;;;15.62;100.00
19128;BME280;9696;53.686;10.094;2022-09-09T08:05:26;100747.63;;;15.86;100.00
19128;BME280;9696;53.686;10.094;2022-09-09T08:07:56;100744.66;;;15.89;100.00
19128;BME280;9696;53.686;10.094;2022-09-09T08:10:26;100750.13;;;15.95;100.00
19128;BME280;9696;53.686;10.094;2022-09-09T08:12:55;100747.78;;;15.92;100.00
19128;BME280;9696;53.686;10.094;2022-09-09T08:15:44;100748.59;;;16.17;99.47
19128;BME280;9696;53.686;10.094;2022-09-09T08:18:14;100749.16;;;15.72;100.00
19128;BME280;9696;53.686;10.094;2022-09-09T08:20:44;100751.44;;;15.99;100.00
19128;BME280;9696;53.686;10.094;2022-09-09T08:23:16;100760.16;;;16.24;98.53
19128;BME280;9696;53.686;10.094;2022-09-09T08:25:45;100759.53;;;15.98;100.00
19128;BME280;9696;53.686;10.094;2022-09-09T08:28:16;100760.88;;;15.86;100.00
19128;BME280;9696;53.686;10.094;2022-09-09T08:30:45;100764.31;;;16.11;100.00
19128;BME280;9696;53.686;10.094;2022-09-09T08:33:15;100764.78;;;16.38;100.00
19128;BME280;9696;53.686;10.094;2022-09-09T08:35:50;100765.16;;;16.82;99.79
19128;BME280;9696;53.686;10.094;2022-09-09T08:38:21;100766.06;;;16.50;94.62
19128;BME280;9696;53.686;10.094;2022-09-09T08:40:51;100764.31;;;16.82;97.09
19128;BME280;9696;53.686;10.094;2022-09-09T08:43:28;100763.72;;;16.47;96.80
19128;BME280;9696;53.686;10.094;2022-09-09T08:46:01;100752.59;;;17.07;90.83
19128;BME280;9696;53.686;10.094;2022-09-09T08:48:52;100756.00;;;17.47;89.68
19128;BME280;9696;53.686;10.094;2022-09-09T08:51:26;100756.31;;;17.97;86.31
19128;BME280;9696;53.686;10.094;2022-09-09T08:54:01;100759.19;;;17.42;92.32
19128;BME280;9696;53.686;10.094;2022-09-09T08:56:33;100768.41;;;16.92;91.35
19128;BME280;9696;53.686;10.094;2022-09-09T08:59:03;100774.69;;;16.91;92.63
19128;BME280;9696;53.686;10.094;2022-09-09T09:01:45;100764.28;;;17.21;89.86
19128;BME280;9696;53.686;10.094;2022-09-09T09:04:38;100764.53;;;18.02;85.67
19128;BME280;9696;53.686;10.094;2022-09-09T09:07:21;100763.84;;;18.23;88.61
19128;BME280;9696;53.686;10.094;2022-09-09T09:09:59;100772.31;;;18.04;87.16
19128;BME280;9696;53.686;10.094;2022-09-09T09:12:37;100772.63;;;17.40;86.51
19128;BME280;9696;53.686;10.094;2022-09-09T09:15:14;100775.22;;;17.49;86.50
19128;BME280;9696;53.686;10.094;2022-09-09T09:17:45;100777.50;;;17.52;89.61
19128;BME280;9696;53.686;10.094;2022-09-09T09:20:15;100778.03;;;17.24;89.54
19128;BME280;9696;53.686;10.094;2022-09-09T09:22:50;100784.06;;;17.10;89.50
19128;BME280;9696;53.686;10.094;2022-09-09T09:25:23;100779.75;;;17.40;86.00
19128;BME280;9696;53.686;10.094;2022-09-09T09:27:59;100777.81;;;17.57;86.57
19128;BME280;9696;53.686;10.094;2022-09-09T09:30:34;100778.66;;;17.80;84.66
19128;BME280;9696;53.686;10.094;2022-09-09T09:33:14;100779.22;;;17.44;86.46
19128;BME280;9696;53.686;10.094;2022-09-09T09:35:48;100774.75;;;17.45;84.65
19128;BME280;9696;53.686;10.094;2022-09-09T09:38:18;100774.41;;;17.71;84.71
19128;BME280;9696;53.686;10.094;2022-09-09T09:41:09;100772.13;;;17.68;83.61
19128;BME280;9696;53.686;10.094;2022-09-09T09:43:41;100774.47;;;17.63;82.61
19128;BME280;9696;53.686;10.094;2022-09-09T09:46:21;100764.78;;;17.70;82.82
19128;BME280;9696;53.686;10.094;2022-09-09T09:48:57;100771.94;;;18.73;78.55
19128;BME280;9696;53.686;10.094;2022-09-09T09:51:29;100771.63;;;18.39;81.37
19128;BME280;9696;53.686;10.094;2022-09-09T09:54:09;100769.06;;;17.94;79.64
19128;BME280;9696;53.686;10.094;2022-09-09T09:56:46;100777.94;;;18.09;80.67
19128;BME280;9696;53.686;10.094;2022-09-09T09:59:22;100787.31;;;17.74;81.08
19128;BME280;9696;53.686;10.094;2022-09-09T10:02:13;100778.94;;;18.22;81.52
19128;BME280;9696;53.686;10.094;2022-09-09T10:04:44;100781.41;;;18.09;80.53
19128;BME280;9696;53.686;10.094;2022-09-09T10:07:19;100779.31;;;18.34;80.54
19128;BME280;9696;53.686;10.094;2022-09-09T10:09:53;100783.34;;;18.15;80.44
19128;BME280;9696;53.686;10.094;2022-09-09T10:12:35;100779.94;;;18.21;78.53
19128;BME280;9696;53.686;10.094;2022-09-09T10:18:22;100777.25;;;20.02;71.68
19128;BME280;9696;53.686;10.094;2022-09-09T10:20:58;100780.63;;;19.68;72.69
19128;BME280;9696;53.686;10.094;2022-09-09T10:23:46;100767.69;;;20.70;70.18
19128;BME280;9696;53.686;10.094;2022-09-09T10:26:32;100770.97;;;20.72;66.25
19128;BME280;9696;53.686;10.094;2022-09-09T10:29:20;100766.66;;;21.19;67.22
19128;BME280;9696;53.686;10.094;2022-09-09T10:32:01;100761.72;;;21.22;67.35
19128;BME280;9696;53.686;10.094;2022-09-09T10:34:57;100765.28;;;21.36;65.63
19128;BME280;9696;53.686;10.094;2022-09-09T10:37:41;100763.06;;;21.72;65.58
19128;BME280;9696;53.686;10.094;2022-09-09T10:40:26;100761.13;;;21.20;66.36
19128;BME280;9696;53.686;10.094;2022-09-09T10:43:04;100757.78;;;19.38;68.56
19128;BME280;9696;53.686;10.094;2022-09-09T10:45:48;100761.28;;;19.81;67.86
19128;BME280;9696;53.686;10.094;2022-09-09T10:48:31;100755.66;;;20.46;65.45
19128;BME280;9696;53.686;10.094;2022-09-09T10:51:23;100754.03;;;20.93;63.65
19128;BME280;9696;53.686;10.094;2022-09-09T10:54:16;100752.72;;;20.76;63.33
19128;BME280;9696;53.686;10.094;2022-09-09T10:56:52;100754.28;;;21.11;60.21
19128;BME280;9696;53.686;10.094;2022-09-09T10:59:26;100754.59;;;21.29;62.58
19128;BME280;9696;53.686;10.094;2022-09-09T11:02:02;100759.84;;;21.09;63.85
19128;BME280;9696;53.686;10.094;2022-09-09T11:04:41;100757.31;;;21.82;59.56
19128;BME280;9696;53.686;10.094;2022-09-09T11:07:16;100753.53;;;21.17;63.26
19128;BME280;9696;53.686;10.094;2022-09-09T11:09:52;100757.53;;;21.67;60.74
19128;BME280;9696;53.686;10.094;2022-09-09T11:12:28;100745.78;;;22.47;59.60
19128;BME280;9696;53.686;10.094;2022-09-09T11:15:04;100755.88;;;21.86;62.06
19128;BME280;9696;53.686;10.094;2022-09-09T11:17:40;100753.78;;;21.42;62.98
19128;BME280;9696;53.686;10.094;2022-09-09T11:20:12;100755.56;;;21.15;60.84
19128;BME280;9696;53.686;10.094;2022-09-09T11:22:46;100757.63;;;21.13;62.30
19128;BME280;9696;53.686;10.094;2022-09-09T11:25:18;100746.47;;;21.96;59.06
19128;BME280;9696;53.686;10.094;2022-09-09T11:28:15;100754.38;;;20.83;64.36
19128;BME280;9696;53.686;10.094;2022-09-09T11:30:58;100750.63;;;20.02;66.25
19128;BME280;9696;53.686;10.094;2022-09-09T11:34:00;100759.41;;;19.75;65.26
19128;BME280;9696;53.686;10.094;2022-09-09T11:37:02;100751.22;;;20.04;67.12
19128;BME280;9696;53.686;10.094;2022-09-09T11:40:09;100765.78;;;20.30;65.95
19128;BME280;9696;53.686;10.094;2022-09-09T11:42:43;100764.97;;;20.63;63.25
19128;BME280;9696;53.686;10.094;2022-09-09T11:45:21;100764.19;;;20.69;66.59
19128;BME280;9696;53.686;10.094;2022-09-09T11:47:55;100765.97;;;21.10;62.76
19128;BME280;9696;53.686;10.094;2022-09-09T11:50:36;100762.03;;;22.39;59.16
19128;BME280;9696;53.686;10.094;2022-09-09T11:53:22;100761.00;;;21.68;60.24
19128;BME280;9696;53.686;10.094;2022-09-09T11:56:03;100762.66;;;21.75;56.65
19128;BME280;9696;53.686;10.094;2022-09-09T11:58:43;100757.88;;;21.31;60.53
19128;BME280;9696;53.686;10.094;2022-09-09T12:01:28;100767.16;;;21.81;59.86
19128;BME280;9696;53.686;10.094;2022-09-09T12:04:15;100757.72;;;21.66;60.73
19128;BME280;9696;53.686;10.094;2022-09-09T12:06:53;100763.28;;;22.30;58.98
19128;BME280;9696;53.686;10.094;2022-09-09T12:09:27;100756.53;;;21.94;59.77
19128;BME280;9696;53.686;10.094;2022-09-09T12:12:23;100761.66;;;22.09;57.49
19128;BME280;9696;53.686;10.094;2022-09-09T12:14:58;100752.50;;;22.63;58.44
19128;BME280;9696;53.686;10.094;2022-09-09T12:17:29;100747.16;;;22.56;58.13
19128;BME280;9696;53.686;10.094;2022-09-09T12:20:06;100750.84;;;20.35;64.41
19128;BME280;9696;53.686;10.094;2022-09-09T12:22:55;100754.03;;;19.96;66.47
19128;BME280;9696;53.686;10.094;2022-09-09T12:25:46;100754.56;;;19.64;69.09
19128;BME280;9696;53.686;10.094;2022-09-09T12:28:19;100759.44;;;20.03;68.78
19128;BME280;9696;53.686;10.094;2022-09-09T12:30:53;100763.13;;;20.08;66.56
19128;BME280;9696;53.686;10.094;2022-09-09T12:33:33;100766.78;;;20.01;67.31
19128;BME280;9696;53.686;10.094;2022-09-09T12:36:04;100758.50;;;19.68;67.85
19128;BME280;9696;53.686;10.094;2022-09-09T12:38:38;100762.31;;;19.59;68.03
19128;BME280;9696;53.686;10.094;2022-09-09T12:41:19;100764.00;;;19.45;70.13
19128;BME280;9696;53.686;10.094;2022-09-09T12:43:48;100764.16;;;19.22;71.31
19128;BME280;9696;53.686;10.094;2022-09-09T12:46:27;100759.84;;;19.21;70.89
19128;BME280;9696;53.686;10.094;2022-09-09T12:48:59;100767.56;;;19.16;71.72
19128;BME280;9696;53.686;10.094;2022-09-09T12:51:30;100762.22;;;19.31;71.42
19128;BME280;9696;53.686;10.094;2022-09-09T12:54:01;100760.63;;;19.37;70.40
19128;BME280;9696;53.686;10.094;2022-09-09T12:56:32;100757.44;;;19.26;71.10
19128;BME280;9696;53.686;10.094;2022-09-09T12:59:03;100761.34;;;19.45;69.89
19128;BME280;9696;53.686;10.094;2022-09-09T13:01:33;100757.44;;;19.26;70.63
19128;BME280;9696;53.686;10.094;2022-09-09T13:04:02;100758.47;;;19.25;70.36
19128;BME280;9696;53.686;10.094;2022-09-09T13:06:33;100752.56;;;19.30;72.06
19128;BME280;9696;53.686;10.094;2022-09-09T13:09:03;100758.13;;;19.14;74.91
19128;BME280;9696;53.686;10.094;2022-09-09T13:11:38;100761.56;;;18.93;75.47
19128;BME280;9696;53.686;10.094;2022-09-09T13:14:17;100758.16;;;18.84;76.35
19128;BME280;9696;53.686;10.094;2022-09-09T13:16:56;100760.81;;;18.84;77.05
19128;BME280;9696;53.686;10.094;2022-09-09T13:19:26;100752.84;;;18.84;77.61
19128;BME280;9696;53.686;10.094;2022-09-09T13:21:59;100750.59;;;18.67;80.67
19128;BME280;9696;53.686;10.094;2022-09-09T13:24:32;100747.81;;;18.46;80.41
19128;BME280;9696;53.686;10.094;2022-09-09T13:27:04;100752.59;;;18.50;80.01